This is the latest recevied weather packets stored in our database for station/object G4GVZ-1. If no packets are shown the sender has not sent any weather packets the latest 10 day(s).
| Time | Temp. | Humidity | Pressure | Rain* | Wind** | Luminosity | Snow |
|---|---|---|---|---|---|---|---|
| 1777968051 | 10° C | 82% | 1014.2 hPa | 0 mm | - | - | - |
| 1777967151 | 10° C | 83% | 1014.1 hPa | 0 mm | - | - | - |
| 1777966250 | 10° C | 84% | 1014.1 hPa | 0 mm | - | - | - |
| 1777965350 | 10° C | 84% | 1014.1 hPa | 0 mm | - | - | - |
| 1777964450 | 10° C | 85% | 1014 hPa | 0 mm | - | - | - |
| 1777963547 | 9.44° C | 87% | 1014.1 hPa | 0 mm | - | - | - |
| 1777962647 | 8.89° C | 89% | 1013.9 hPa | 0 mm | - | - | - |
| 1777961747 | 8.89° C | 90% | 1014 hPa | 0 mm | - | - | - |
| 1777960847 | 8.33° C | 93% | 1014.2 hPa | 0 mm | - | - | - |
| 1777959946 | 8.33° C | 95% | 1014.2 hPa | 0 mm | - | - | - |
| 1777959046 | 8.33° C | 96% | 1014.4 hPa | 0 mm | - | - | - |
| 1777958148 | 7.78° C | 95% | 1014.3 hPa | 0 mm | - | - | - |
| 1777957248 | 7.78° C | 95% | 1014.3 hPa | 0 mm | - | - | - |
| 1777956348 | 7.78° C | 95% | 1014.2 hPa | 0 mm | - | - | - |
| 1777955447 | 7.78° C | 94% | 1014 hPa | 0 mm | - | - | - |
| 1777954547 | 7.78° C | 94% | 1013.9 hPa | 0 mm | - | - | - |
| 1777953647 | 8.33° C | 94% | 1013.9 hPa | 0 mm | - | - | - |
| 1777952747 | 8.33° C | 94% | 1013.9 hPa | 0 mm | - | - | - |
| 1777951847 | 8.33° C | 93% | 1014.1 hPa | 0 mm | - | - | - |
| 1777950946 | 8.89° C | 92% | 1014.1 hPa | 0 mm | - | - | - |
| 1777950046 | 9.44° C | 90% | 1014 hPa | 0 mm | - | - | - |
| 1777949149 | 9.44° C | 91% | 1013.9 hPa | 0 mm | - | - | - |
| 1777948249 | 9.44° C | 92% | 1014 hPa | 0 mm | - | - | - |
| 1777947348 | 8.89° C | 93% | 1014.3 hPa | 0 mm | - | - | - |
| 1777946448 | 8.89° C | 93% | 1014.3 hPa | 0 mm | - | - | - |
* Rain latest hour (hover to see other rain measurements)
** Current wind speed in m/s (hover to see current wind gust speed)